Time;durP1;ratioP1;P1;durP2;ratioP2;P2;SDS_P1;SDS_P2;PMS_P1;PMS_P2;Temp;Humidity;BMP_temperature;BMP_pressure;BME280_temperature;BME280_humidity;BME280_pressure;Samples;Min_cycle;Max_cycle;Signal;HPM_P1;HPM_P2
2023/05/15 00:00:12;;;;;;;66.15;35.67;;;11.40;99.90;;;;;;4968903;28;20054;-59
2023/05/15 00:02:38;;;;;;;57.95;34.13;;;11.40;99.90;;;;;;4951052;28;20050;-58
2023/05/15 00:05:07;;;;;;;54.67;33.33;;;11.40;99.90;;;;;;4952719;28;20062;-58
2023/05/15 00:07:33;;;;;;;55.45;32.55;;;11.40;99.90;;;;;;4951545;28;20531;-59
2023/05/15 00:09:59;;;;;;;48.28;31.17;;;11.30;99.90;;;;;;4949588;28;20046;-57
2023/05/15 00:12:25;;;;;;;52.13;32.22;;;11.30;99.90;;;;;;4969366;28;20509;-58
2023/05/15 00:14:51;;;;;;;57.13;33.72;;;11.30;99.90;;;;;;4934679;28;20054;-58
2023/05/15 00:17:17;;;;;;;52.00;31.10;;;11.40;99.90;;;;;;4967859;28;20575;-58
2023/05/15 00:19:42;;;;;;;51.55;32.90;;;11.30;99.90;;;;;;4954196;28;20518;-57
2023/05/15 00:22:08;;;;;;;51.55;32.10;;;11.30;99.90;;;;;;4970169;28;20062;-59
2023/05/15 00:24:34;;;;;;;58.40;33.15;;;11.30;99.90;;;;;;4967642;28;20135;-58
2023/05/15 00:27:00;;;;;;;50.13;30.83;;;11.30;99.90;;;;;;4963172;28;20043;-57
2023/05/15 00:29:26;;;;;;;53.15;31.63;;;11.30;99.90;;;;;;4952078;28;20038;-58
2023/05/15 00:31:52;;;;;;;47.33;30.88;;;11.30;99.90;;;;;;4953242;28;20047;-58
2023/05/15 00:34:18;;;;;;;51.53;31.85;;;11.30;99.90;;;;;;4953109;28;20046;-58
2023/05/15 00:36:43;;;;;;;53.63;32.20;;;11.20;99.90;;;;;;4970271;28;20042;-58
2023/05/15 00:39:09;;;;;;;54.00;33.10;;;11.20;99.90;;;;;;4959215;28;21455;-59
2023/05/15 00:41:36;;;;;;;50.92;31.92;;;11.20;99.90;;;;;;4939232;28;22424;-57
2023/05/15 00:44:02;;;;;;;58.35;33.08;;;11.20;99.90;;;;;;4966958;28;20046;-59
2023/05/15 00:46:31;;;;;;;56.35;35.15;;;11.20;99.90;;;;;;4966650;28;20052;-59
2023/05/15 00:48:57;;;;;;;58.53;35.67;;;11.20;99.90;;;;;;4952013;28;20070;-57
2023/05/15 00:51:25;;;;;;;58.25;34.88;;;11.20;99.90;;;;;;4969754;28;20115;-58
2023/05/15 00:53:53;;;;;;;58.63;33.85;;;11.10;99.90;;;;;;4967861;28;20168;-58
2023/05/15 00:56:20;;;;;;;51.30;34.05;;;11.10;99.90;;;;;;4966968;28;20046;-58
2023/05/15 00:58:47;;;;;;;59.47;35.35;;;11.20;99.90;;;;;;4969123;28;20125;-57
2023/05/15 01:01:16;;;;;;;54.67;35.33;;;11.10;99.90;;;;;;4967365;28;20496;-58
2023/05/15 01:03:45;;;;;;;56.08;34.38;;;11.10;99.90;;;;;;4967541;28;20054;-58
2023/05/15 01:06:11;;;;;;;64.40;36.92;;;11.10;99.90;;;;;;4966282;28;20057;-58
2023/05/15 01:08:45;;;;;;;56.95;35.50;;;11.10;99.90;;;;;;4956578;28;20035;-58
2023/05/15 01:11:16;;;;;;;63.00;38.00;;;11.10;99.90;;;;;;4948827;28;20051;-58
2023/05/15 01:13:42;;;;;;;78.60;38.15;;;11.00;99.90;;;;;;4965062;28;20398;-58
2023/05/15 01:16:09;;;;;;;72.05;39.55;;;11.00;99.90;;;;;;4948377;28;20129;-57
2023/05/15 01:18:35;;;;;;;64.05;38.55;;;11.00;99.90;;;;;;4967561;28;20846;-59
2023/05/15 01:21:03;;;;;;;69.88;38.70;;;11.00;99.90;;;;;;4947298;28;20125;-58
2023/05/15 01:23:56;;;;;;;65.75;36.92;;;11.00;99.90;;;;;;4963282;28;20619;-58
2023/05/15 01:26:37;;;;;;;60.30;36.65;;;11.00;99.90;;;;;;4962570;28;20046;-58
2023/05/15 01:29:29;;;;;;;60.50;36.17;;;10.90;99.90;;;;;;4963512;28;20034;-58
2023/05/15 01:32:03;;;;;;;60.13;37.15;;;10.90;99.90;;;;;;4967992;28;20532;-58
2023/05/15 01:34:41;;;;;;;76.55;38.17;;;10.90;99.90;;;;;;4965814;28;20104;-58
2023/05/15 01:37:08;;;;;;;66.45;37.65;;;10.90;99.90;;;;;;4935059;28;20043;-58
2023/05/15 01:39:36;;;;;;;61.75;36.08;;;10.80;99.90;;;;;;4954493;28;20046;-59
2023/05/15 01:42:07;;;;;;;58.72;36.90;;;10.80;99.90;;;;;;4948676;28;20061;-58
2023/05/15 01:44:37;;;;;;;58.67;36.92;;;10.80;99.90;;;;;;4959647;28;20047;-59
2023/05/15 01:47:11;;;;;;;56.08;34.67;;;10.80;99.90;;;;;;4944548;28;20626;-59
2023/05/15 01:49:38;;;;;;;59.25;35.33;;;10.70;99.90;;;;;;4944814;28;20494;-58
2023/05/15 01:52:32;;;;;;;56.67;34.42;;;10.70;99.90;;;;;;4966509;28;20086;-59
2023/05/15 01:55:03;;;;;;;55.95;34.38;;;10.70;99.90;;;;;;4960298;28;20108;-59
2023/05/15 01:57:30;;;;;;;53.50;33.17;;;10.70;99.90;;;;;;4947358;28;20054;-58
2023/05/15 01:59:57;;;;;;;59.90;33.45;;;10.70;99.90;;;;;;4946369;28;20068;-58
2023/05/15 02:02:24;;;;;;;53.83;32.50;;;10.70;99.90;;;;;;4946754;28;20053;-58
2023/05/15 02:04:51;;;;;;;54.65;32.95;;;10.70;99.90;;;;;;4959770;28;20084;-59
2023/05/15 02:07:17;;;;;;;47.20;30.80;;;10.70;99.90;;;;;;4951103;28;20065;-58
2023/05/15 02:09:44;;;;;;;54.72;33.47;;;10.70;99.90;;;;;;4965078;28;20046;-58
2023/05/15 02:12:10;;;;;;;58.03;34.33;;;10.70;99.90;;;;;;4945902;28;20133;-58
2023/05/15 02:14:37;;;;;;;63.30;34.63;;;10.70;99.90;;;;;;4962774;28;20615;-58
2023/05/15 02:17:03;;;;;;;66.65;33.58;;;10.60;99.90;;;;;;4932660;28;20054;-58
2023/05/15 02:19:29;;;;;;;57.85;32.10;;;10.60;99.90;;;;;;4950688;28;20103;-59
2023/05/15 02:21:55;;;;;;;58.95;34.58;;;10.60;99.90;;;;;;4950303;28;20137;-59
2023/05/15 02:24:20;;;;;;;64.07;34.28;;;10.60;99.90;;;;;;4950612;28;20481;-58
2023/05/15 02:26:52;;;;;;;61.17;33.38;;;10.70;99.90;;;;;;4961180;28;20050;-58
2023/05/15 02:29:25;;;;;;;46.83;30.20;;;10.70;99.90;;;;;;4967295;28;24069;-57
2023/05/15 02:32:16;;;;;;;45.88;29.17;;;10.60;99.90;;;;;;4962182;28;20549;-58
2023/05/15 02:34:57;;;;;;;72.90;30.60;;;10.60;99.90;;;;;;4968331;28;27118;-57
2023/05/15 02:37:28;;;;;;;75.32;32.00;;;10.50;99.90;;;;;;4945726;28;20085;-59
2023/05/15 02:39:58;;;;;;;52.10;32.40;;;10.50;99.90;;;;;;4966313;28;20460;-59
2023/05/15 02:42:26;;;;;;;55.00;31.85;;;10.40;99.90;;;;;;4945338;28;20096;-58
2023/05/15 02:44:53;;;;;;;62.53;34.25;;;10.40;99.90;;;;;;4964831;28;20081;-59
2023/05/15 02:47:21;;;;;;;61.70;35.17;;;10.40;99.90;;;;;;4944578;28;20050;-58
2023/05/15 02:49:47;;;;;;;71.60;36.70;;;10.40;99.90;;;;;;4959219;28;20057;-58
2023/05/15 02:52:13;;;;;;;74.70;33.70;;;10.40;99.90;;;;;;4967957;28;20063;-58
2023/05/15 02:54:39;;;;;;;67.85;34.03;;;10.40;99.90;;;;;;4967171;28;20069;-59
2023/05/15 02:57:06;;;;;;;108.13;32.15;;;10.30;99.90;;;;;;4961508;28;20043;-57
2023/05/15 02:59:33;;;;;;;56.63;29.45;;;10.30;99.90;;;;;;4952832;28;20046;-59
2023/05/15 03:01:59;;;;;;;109.43;32.65;;;10.20;99.90;;;;;;4963834;28;20057;-59
2023/05/15 03:04:25;;;;;;;61.03;31.48;;;10.20;99.90;;;;;;4963531;28;20094;-59
2023/05/15 03:06:50;;;;;;;96.88;32.83;;;10.20;99.90;;;;;;4947920;28;20053;-59
2023/05/15 03:09:16;;;;;;;74.28;32.20;;;10.20;99.90;;;;;;4951680;28;20050;-57
2023/05/15 03:11:42;;;;;;;49.75;30.05;;;10.10;99.90;;;;;;4946167;28;20749;-58
2023/05/15 03:14:08;;;;;;;52.40;29.95;;;10.00;99.90;;;;;;4965673;28;20050;-58
2023/05/15 03:16:35;;;;;;;49.95;30.15;;;10.00;99.90;;;;;;4948589;28;20639;-58
2023/05/15 03:19:01;;;;;;;67.65;32.75;;;10.00;99.90;;;;;;4945726;28;20053;-58
2023/05/15 03:21:27;;;;;;;48.83;30.48;;;10.00;99.90;;;;;;4967401;28;20042;-58
2023/05/15 03:23:53;;;;;;;51.00;29.80;;;9.90;99.90;;;;;;4963590;28;20074;-58
2023/05/15 03:26:18;;;;;;;48.22;28.23;;;10.00;99.90;;;;;;4931076;28;20046;-58
2023/05/15 03:28:44;;;;;;;36.88;24.17;;;9.90;99.90;;;;;;4957768;28;20057;-58
2023/05/15 03:31:10;;;;;;;39.70;23.98;;;9.90;99.90;;;;;;4962719;28;20049;-57
2023/05/15 03:33:37;;;;;;;38.13;23.63;;;9.90;99.90;;;;;;4962070;28;20050;-58
2023/05/15 03:36:04;;;;;;;34.38;22.42;;;9.90;99.90;;;;;;4962245;28;20042;-57
2023/05/15 03:38:29;;;;;;;38.08;24.58;;;9.90;99.90;;;;;;4967140;28;20631;-57
2023/05/15 03:40:55;;;;;;;35.88;23.55;;;9.80;99.90;;;;;;4957830;28;20047;-59
2023/05/15 03:43:21;;;;;;;33.72;22.42;;;9.80;99.90;;;;;;4964870;28;20060;-58
2023/05/15 03:45:46;;;;;;;33.03;23.13;;;9.80;99.90;;;;;;4964652;28;20088;-59
2023/05/15 03:48:12;;;;;;;36.05;23.13;;;9.90;99.90;;;;;;4944753;28;20058;-58
2023/05/15 03:50:39;;;;;;;34.50;22.73;;;9.90;99.90;;;;;;4965060;28;20050;-59
2023/05/15 03:53:04;;;;;;;37.97;25.10;;;9.90;99.90;;;;;;4941038;28;20054;-57
2023/05/15 03:55:30;;;;;;;35.00;25.83;;;9.80;99.90;;;;;;4965067;28;20034;-58
2023/05/15 03:57:57;;;;;;;36.25;25.83;;;9.90;99.90;;;;;;4963283;28;20047;-59
2023/05/15 04:00:23;;;;;;;34.67;25.38;;;10.00;99.90;;;;;;4948451;28;20038;-57
2023/05/15 04:02:49;;;;;;;36.63;25.20;;;10.00;99.90;;;;;;4964281;28;20069;-58
2023/05/15 04:05:14;;;;;;;36.70;25.58;;;10.00;99.90;;;;;;4962629;28;20053;-58
2023/05/15 04:07:40;;;;;;;31.95;24.35;;;10.00;99.90;;;;;;4936102;28;20046;-59
2023/05/15 04:10:06;;;;;;;31.98;23.58;;;10.10;99.90;;;;;;4951407;28;20050;-59
2023/05/15 04:12:33;;;;;;;29.73;23.45;;;10.10;99.90;;;;;;4962606;28;20058;-58
2023/05/15 04:15:20;;;;;;;30.75;22.63;;;10.20;99.90;;;;;;4939080;28;20370;-59
2023/05/15 04:17:48;;;;;;;28.60;22.35;;;10.20;99.90;;;;;;4964909;28;20117;-59
2023/05/15 04:20:15;;;;;;;23.58;20.08;;;10.20;99.90;;;;;;4963505;28;20039;-58
2023/05/15 04:22:42;;;;;;;28.52;21.27;;;10.20;99.90;;;;;;4963938;28;20246;-57
2023/05/15 04:25:10;;;;;;;29.80;22.85;;;10.30;99.90;;;;;;4946131;28;20054;-58
2023/05/15 04:27:36;;;;;;;30.38;22.38;;;10.30;99.90;;;;;;4945350;28;20050;-58
2023/05/15 04:30:04;;;;;;;24.13;20.35;;;10.40;99.90;;;;;;4963126;28;20043;-57
2023/05/15 04:32:30;;;;;;;24.33;20.25;;;10.40;99.90;;;;;;4966142;28;20584;-58
2023/05/15 04:34:56;;;;;;;27.48;21.40;;;10.30;99.90;;;;;;4963977;28;20432;-58
2023/05/15 04:37:22;;;;;;;27.35;21.40;;;10.40;99.90;;;;;;4964503;28;20132;-59
2023/05/15 04:39:47;;;;;;;28.50;21.80;;;10.30;99.90;;;;;;4952679;28;20035;-57
2023/05/15 04:42:13;;;;;;;27.00;21.30;;;10.40;99.90;;;;;;4964552;28;20206;-58
2023/05/15 04:44:39;;;;;;;26.05;20.98;;;10.40;99.90;;;;;;4927463;28;20051;-59
2023/05/15 04:47:05;;;;;;;27.77;21.00;;;10.40;99.90;;;;;;4964618;28;20097;-58
2023/05/15 04:49:30;;;;;;;25.60;20.50;;;10.40;99.90;;;;;;4964846;28;20520;-58
2023/05/15 04:51:56;;;;;;;27.10;20.90;;;10.40;99.90;;;;;;4963421;28;20544;-58
2023/05/15 04:54:22;;;;;;;28.60;21.88;;;10.40;99.90;;;;;;4949436;28;20501;-58
2023/05/15 04:56:48;;;;;;;29.25;21.42;;;10.40;99.90;;;;;;4936902;28;20065;-58
2023/05/15 04:59:17;;;;;;;24.65;20.73;;;10.50;99.90;;;;;;4962015;28;20054;-59
2023/05/15 05:01:42;;;;;;;24.25;20.33;;;10.50;99.90;;;;;;4971307;28;20478;-59
2023/05/15 05:04:08;;;;;;;28.40;20.10;;;10.50;99.90;;;;;;4978005;28;20184;-59
2023/05/15 05:06:34;;;;;;;26.90;19.58;;;10.60;99.90;;;;;;4977999;28;20049;-59
2023/05/15 05:09:00;;;;;;;24.70;20.98;;;10.60;99.90;;;;;;4958300;28;20145;-59
2023/05/15 05:11:25;;;;;;;33.13;21.67;;;10.60;99.90;;;;;;4955048;28;20039;-59
2023/05/15 05:13:51;;;;;;;26.10;21.23;;;10.60;99.90;;;;;;4965880;28;20039;-59
2023/05/15 05:16:17;;;;;;;27.45;22.67;;;10.70;99.90;;;;;;4964972;28;20109;-59
2023/05/15 05:18:42;;;;;;;26.58;22.13;;;10.70;99.90;;;;;;4971572;28;20054;-59
2023/05/15 05:21:08;;;;;;;29.90;23.08;;;10.80;99.90;;;;;;4972797;28;20073;-59
2023/05/15 05:23:34;;;;;;;30.17;23.95;;;10.80;99.90;;;;;;4971244;28;20057;-59
2023/05/15 05:26:00;;;;;;;35.60;23.55;;;10.90;99.90;;;;;;4974104;28;20043;-59
2023/05/15 05:28:25;;;;;;;25.70;21.40;;;10.90;99.90;;;;;;4957841;28;20065;-59
2023/05/15 05:30:51;;;;;;;29.80;23.77;;;10.90;99.90;;;;;;4965059;28;20109;-60
2023/05/15 05:33:17;;;;;;;27.75;23.73;;;11.00;99.90;;;;;;4959028;28;20190;-60
2023/05/15 05:35:43;;;;;;;28.60;23.80;;;11.00;99.90;;;;;;4972007;28;20038;-60
2023/05/15 05:38:08;;;;;;;33.17;24.25;;;11.00;99.90;;;;;;4974479;28;20035;-60
2023/05/15 05:40:34;;;;;;;32.63;25.00;;;11.10;99.90;;;;;;4939327;28;20382;-59
2023/05/15 05:43:01;;;;;;;33.30;24.10;;;11.10;99.90;;;;;;4928796;28;20106;-59
2023/05/15 05:45:27;;;;;;;31.35;25.20;;;11.20;99.90;;;;;;4951570;28;20050;-59
2023/05/15 05:47:55;;;;;;;30.27;24.77;;;11.20;99.90;;;;;;4969222;28;20392;-60
2023/05/15 05:50:21;;;;;;;33.90;25.38;;;11.20;99.90;;;;;;4977654;28;20057;-60
2023/05/15 05:52:47;;;;;;;30.23;24.38;;;11.30;99.90;;;;;;4976345;28;20140;-60
2023/05/15 05:55:13;;;;;;;28.98;23.75;;;11.30;99.90;;;;;;4966795;28;20050;-58
2023/05/15 05:57:38;;;;;;;28.67;22.80;;;11.40;99.90;;;;;;4971275;28;20046;-60
2023/05/15 06:00:08;;;;;;;28.55;23.08;;;11.40;99.90;;;;;;4974092;28;20046;-59
2023/05/15 06:02:34;;;;;;;27.20;22.73;;;11.50;99.90;;;;;;4959500;28;20053;-60
2023/05/15 06:05:00;;;;;;;28.67;22.02;;;11.50;99.90;;;;;;4970900;28;20093;-59
2023/05/15 06:07:26;;;;;;;27.38;22.10;;;11.60;99.90;;;;;;4975769;28;20140;-60
2023/05/15 06:09:52;;;;;;;29.40;22.92;;;11.70;99.90;;;;;;4962913;28;20038;-59
2023/05/15 06:12:18;;;;;;;27.23;21.45;;;11.70;99.90;;;;;;4946578;28;20046;-62
2023/05/15 06:14:45;;;;;;;21.65;17.63;;;11.80;99.90;;;;;;4937263;28;20188;-63
2023/05/15 06:17:11;;;;;;;19.95;17.17;;;11.80;99.90;;;;;;4950091;28;20038;-62
2023/05/15 06:19:36;;;;;;;22.58;16.85;;;11.80;99.90;;;;;;4956463;28;20100;-62
2023/05/15 06:22:02;;;;;;;21.60;16.38;;;11.80;99.90;;;;;;4969257;28;20051;-62
2023/05/15 06:24:28;;;;;;;14.20;12.40;;;11.80;99.90;;;;;;4954646;28;20042;-62
2023/05/15 06:26:54;;;;;;;15.48;12.70;;;11.90;99.90;;;;;;4953693;28;20054;-63
2023/05/15 06:29:20;;;;;;;16.75;12.68;;;11.90;99.90;;;;;;4971508;28;20133;-62
2023/05/15 06:31:45;;;;;;;17.25;12.15;;;12.00;99.90;;;;;;4970577;28;20054;-62
2023/05/15 06:34:11;;;;;;;14.95;12.55;;;12.00;99.90;;;;;;4940715;28;20057;-62
2023/05/15 06:36:37;;;;;;;15.15;11.88;;;12.00;99.90;;;;;;4955947;28;20046;-62
2023/05/15 06:39:04;;;;;;;14.40;11.48;;;12.10;99.90;;;;;;4947264;28;20042;-62
2023/05/15 06:41:30;;;;;;;16.05;12.60;;;12.10;99.90;;;;;;4940363;28;20864;-62
2023/05/15 06:43:56;;;;;;;18.17;14.35;;;12.20;99.90;;;;;;4956954;28;20136;-62
2023/05/15 06:46:22;;;;;;;17.88;14.10;;;12.30;99.90;;;;;;4955072;28;20068;-62
2023/05/15 06:48:47;;;;;;;15.77;14.05;;;12.30;99.90;;;;;;4938654;28;20125;-62
2023/05/15 06:51:13;;;;;;;15.13;12.23;;;12.30;99.90;;;;;;4956042;28;20105;-62
2023/05/15 06:53:40;;;;;;;16.75;13.10;;;12.40;99.90;;;;;;4958124;28;20046;-62
2023/05/15 06:56:06;;;;;;;12.70;10.77;;;12.40;99.90;;;;;;4956237;28;20099;-62
2023/05/15 06:58:32;;;;;;;17.20;13.55;;;12.40;99.90;;;;;;4944137;28;20042;-62
2023/05/15 07:00:58;;;;;;;18.02;13.60;;;12.40;99.90;;;;;;4939777;28;20045;-62
2023/05/15 07:03:23;;;;;;;16.52;14.32;;;12.40;99.90;;;;;;4936613;28;20056;-62
2023/05/15 07:05:50;;;;;;;20.50;14.85;;;12.40;99.90;;;;;;4952685;28;20105;-62
2023/05/15 07:08:16;;;;;;;13.57;11.52;;;12.50;99.90;;;;;;4954825;28;20038;-62
2023/05/15 07:10:42;;;;;;;14.25;10.00;;;12.50;99.90;;;;;;4935029;28;20044;-62
2023/05/15 07:13:08;;;;;;;15.10;10.23;;;12.60;99.90;;;;;;4952368;28;20102;-62
2023/05/15 07:15:33;;;;;;;12.68;10.25;;;12.70;99.90;;;;;;4929639;28;20038;-62
2023/05/15 07:18:02;;;;;;;13.02;9.70;;;12.80;99.90;;;;;;4949601;28;20069;-62
2023/05/15 07:20:28;;;;;;;11.82;8.68;;;12.90;99.90;;;;;;4943853;28;20142;-62
2023/05/15 07:22:54;;;;;;;12.65;9.43;;;13.00;99.90;;;;;;4955963;28;20118;-62
2023/05/15 07:25:20;;;;;;;13.45;9.52;;;13.10;99.90;;;;;;4950336;28;20124;-63
2023/05/15 07:27:46;;;;;;;9.40;8.30;;;13.30;99.90;;;;;;4939547;28;20461;-62
2023/05/15 07:30:12;;;;;;;11.05;8.63;;;13.50;99.90;;;;;;4937095;28;20070;-62
2023/05/15 07:32:37;;;;;;;11.35;8.13;;;13.50;99.90;;;;;;4949532;28;20062;-62
2023/05/15 07:35:04;;;;;;;11.38;8.20;;;13.50;99.90;;;;;;4935505;28;20043;-62
2023/05/15 07:37:30;;;;;;;10.90;8.50;;;13.50;99.90;;;;;;4951422;28;20067;-62
2023/05/15 07:39:56;;;;;;;12.88;9.80;;;13.50;99.90;;;;;;4950473;28;20530;-62
2023/05/15 07:42:22;;;;;;;14.50;10.77;;;13.50;99.90;;;;;;4951693;28;20098;-62
2023/05/15 07:44:47;;;;;;;13.10;9.55;;;13.60;99.90;;;;;;4961999;28;20201;-63
2023/05/15 07:47:13;;;;;;;14.35;10.07;;;13.80;99.90;;;;;;4956832;28;20096;-62
2023/05/15 07:49:39;;;;;;;14.30;12.38;;;13.90;99.90;;;;;;4943250;28;20042;-62
2023/05/15 07:52:05;;;;;;;10.60;9.15;;;14.00;99.90;;;;;;4955859;28;20114;-62
2023/05/15 07:54:31;;;;;;;13.20;9.60;;;14.10;99.90;;;;;;4955118;28;20043;-62
2023/05/15 07:56:57;;;;;;;10.98;8.80;;;14.10;99.90;;;;;;4955614;28;20046;-62
2023/05/15 07:59:23;;;;;;;12.02;9.95;;;14.20;99.90;;;;;;4950273;28;20073;-62
2023/05/15 08:01:49;;;;;;;10.63;8.60;;;14.20;99.90;;;;;;4958831;28;20086;-63
2023/05/15 08:04:14;;;;;;;10.13;8.40;;;14.20;99.90;;;;;;4960755;28;20516;-62
2023/05/15 08:06:41;;;;;;;10.85;9.18;;;14.30;99.90;;;;;;4962926;28;20058;-63
2023/05/15 08:09:08;;;;;;;12.90;9.65;;;14.30;99.90;;;;;;4948184;28;20053;-62
2023/05/15 08:11:34;;;;;;;12.20;9.60;;;14.40;99.90;;;;;;4973226;28;20050;-62
2023/05/15 08:14:00;;;;;;;13.68;10.75;;;14.50;99.90;;;;;;4977343;28;20079;-63
2023/05/15 08:16:26;;;;;;;12.45;9.77;;;14.40;99.90;;;;;;4959401;28;20088;-63
2023/05/15 08:18:59;;;;;;;10.93;9.55;;;14.40;99.90;;;;;;4950930;28;20081;-63
2023/05/15 08:21:26;;;;;;;12.02;10.05;;;14.30;99.90;;;;;;4973425;28;20074;-63
2023/05/15 08:23:52;;;;;;;12.13;10.35;;;14.40;99.90;;;;;;4956622;28;20038;-63
2023/05/15 08:26:17;;;;;;;11.85;9.10;;;14.50;99.90;;;;;;4962413;28;20568;-63
2023/05/15 08:28:43;;;;;;;11.68;9.40;;;14.60;99.90;;;;;;4965898;28;20094;-63
2023/05/15 08:31:09;;;;;;;10.73;9.55;;;14.70;99.90;;;;;;4963741;28;20039;-63
2023/05/15 08:33:35;;;;;;;11.88;10.45;;;14.80;99.90;;;;;;4969643;28;20058;-63
2023/05/15 08:36:00;;;;;;;12.80;11.25;;;14.90;99.90;;;;;;4953981;28;20126;-63
2023/05/15 08:38:26;;;;;;;11.70;9.88;;;15.00;99.90;;;;;;4938939;28;20465;-63
2023/05/15 08:40:55;;;;;;;11.32;8.85;;;15.10;99.90;;;;;;4966214;28;20043;-63
2023/05/15 08:43:22;;;;;;;10.40;8.65;;;15.20;99.90;;;;;;4981825;28;20185;-63
2023/05/15 08:45:48;;;;;;;9.05;8.10;;;15.20;99.90;;;;;;4977195;28;20043;-63
2023/05/15 08:48:18;;;;;;;9.80;8.50;;;15.30;99.90;;;;;;4986127;28;20088;-63
2023/05/15 08:50:44;;;;;;;12.68;9.30;;;15.30;99.90;;;;;;4966120;28;20050;-63
2023/05/15 08:53:12;;;;;;;10.18;8.88;;;15.50;99.90;;;;;;4973374;28;20138;-63
2023/05/15 08:55:39;;;;;;;11.10;8.63;;;15.70;99.90;;;;;;4968144;28;20116;-63
2023/05/15 08:58:05;;;;;;;10.73;8.43;;;15.70;99.90;;;;;;4965426;28;20042;-63
2023/05/15 09:00:32;;;;;;;10.05;8.15;;;15.70;99.90;;;;;;4982564;28;20141;-63
2023/05/15 09:03:01;;;;;;;10.50;8.32;;;15.90;99.90;;;;;;4979497;28;20050;-63
2023/05/15 09:05:30;;;;;;;11.95;8.48;;;15.90;99.90;;;;;;4964615;28;20065;-63
2023/05/15 09:08:01;;;;;;;10.80;8.10;;;16.00;99.90;;;;;;4965666;28;20043;-63
2023/05/15 09:10:28;;;;;;;10.45;8.02;;;16.20;99.90;;;;;;4962092;28;20098;-63
2023/05/15 09:12:53;;;;;;;10.43;8.95;;;16.20;99.90;;;;;;4978182;28;20050;-63
2023/05/15 09:15:23;;;;;;;11.60;8.38;;;16.20;99.90;;;;;;4957536;28;20042;-63
2023/05/15 09:17:49;;;;;;;8.63;7.30;;;16.40;99.90;;;;;;4947364;28;20114;-63
2023/05/15 09:20:35;;;;;;;10.57;8.98;;;16.50;99.90;;;;;;4965663;28;20047;-63
2023/05/15 09:23:04;;;;;;;11.40;8.25;;;16.70;99.90;;;;;;4959998;28;20050;-63
2023/05/15 09:25:41;;;;;;;10.35;9.25;;;16.70;99.90;;;;;;4951816;28;20074;-63
2023/05/15 09:28:26;;;;;;;11.50;9.45;;;16.80;99.90;;;;;;4977454;28;20121;-63
2023/05/15 09:31:00;;;;;;;10.20;8.27;;;16.90;99.90;;;;;;4956986;28;20098;-63
2023/05/15 09:33:31;;;;;;;9.38;8.45;;;16.90;99.90;;;;;;4964171;28;20057;-63
2023/05/15 09:35:57;;;;;;;10.10;7.88;;;17.00;99.90;;;;;;4978030;28;20038;-63
2023/05/15 09:38:22;;;;;;;10.38;7.93;;;17.10;99.90;;;;;;4950637;28;20047;-63
2023/05/15 09:40:49;;;;;;;10.65;8.38;;;17.10;99.90;;;;;;4935330;28;20101;-63
2023/05/15 09:43:15;;;;;;;13.82;8.50;;;17.30;99.90;;;;;;4960818;28;20046;-63
2023/05/15 09:45:41;;;;;;;15.27;8.23;;;17.40;99.90;;;;;;4958184;28;20069;-63
2023/05/15 09:48:08;;;;;;;9.93;7.57;;;17.40;99.90;;;;;;4977225;28;20057;-63
2023/05/15 09:50:36;;;;;;;9.13;7.75;;;17.60;99.90;;;;;;4960800;28;20046;-63
2023/05/15 09:53:03;;;;;;;10.18;7.55;;;17.70;99.90;;;;;;4962879;28;20839;-63
2023/05/15 09:55:31;;;;;;;9.80;7.78;;;17.70;99.90;;;;;;4960160;28;20459;-63
2023/05/15 09:58:10;;;;;;;9.65;7.80;;;17.70;99.90;;;;;;4962021;28;20054;-63
2023/05/15 10:00:37;;;;;;;9.48;7.57;;;17.80;99.90;;;;;;4962944;28;20042;-63
2023/05/15 10:03:05;;;;;;;8.85;7.60;;;18.00;99.90;;;;;;4969738;28;20091;-63
2023/05/15 10:05:31;;;;;;;11.15;7.57;;;18.00;99.90;;;;;;4941443;28;20059;-63
2023/05/15 10:07:58;;;;;;;9.98;7.40;;;18.10;99.90;;;;;;4940944;28;20070;-63
2023/05/15 10:10:25;;;;;;;8.88;6.97;;;18.20;99.90;;;;;;4940017;28;20141;-63
2023/05/15 10:12:51;;;;;;;9.48;7.22;;;18.40;99.90;;;;;;4959702;28;20050;-63
2023/05/15 10:15:18;;;;;;;12.40;7.20;;;18.40;99.90;;;;;;4941189;28;20051;-63
2023/05/15 10:17:47;;;;;;;11.90;7.90;;;18.40;99.90;;;;;;4957136;28;20053;-63
2023/05/15 10:20:16;;;;;;;8.40;7.60;;;18.50;99.90;;;;;;4941405;28;20473;-63
2023/05/15 10:22:45;;;;;;;8.98;7.70;;;18.50;99.90;;;;;;4945067;28;20067;-63
2023/05/15 10:25:40;;;;;;;9.73;8.00;;;18.50;99.90;;;;;;4940282;28;20054;-64
2023/05/15 10:28:10;;;;;;;11.20;7.82;;;18.50;99.90;;;;;;4937776;28;20039;-63
2023/05/15 10:30:37;;;;;;;12.55;8.25;;;18.40;99.90;;;;;;4940260;28;20051;-63
2023/05/15 10:33:06;;;;;;;11.40;7.82;;;18.20;99.90;;;;;;4931846;28;20047;-64
2023/05/15 10:35:33;;;;;;;10.60;8.35;;;18.20;99.90;;;;;;4953087;28;20050;-63
2023/05/15 10:38:00;;;;;;;11.75;7.72;;;18.20;99.90;;;;;;4925542;28;20034;-63
2023/05/15 10:40:28;;;;;;;9.93;7.72;;;18.10;99.90;;;;;;4941056;28;20066;-63
2023/05/15 10:42:55;;;;;;;9.98;8.35;;;18.10;99.90;;;;;;4952739;28;20486;-63
2023/05/15 10:45:21;;;;;;;11.70;8.07;;;18.00;99.90;;;;;;4927149;28;20043;-63
2023/05/15 10:47:47;;;;;;;8.85;7.72;;;18.00;99.90;;;;;;4938193;28;20133;-63
2023/05/15 10:50:13;;;;;;;10.35;7.53;;;18.00;99.90;;;;;;4925543;28;20198;-63
2023/05/15 10:52:40;;;;;;;9.38;7.18;;;18.00;99.90;;;;;;4939700;28;20094;-64
2023/05/15 10:55:13;;;;;;;9.63;6.97;;;18.10;99.90;;;;;;4952097;28;20061;-63
2023/05/15 10:57:39;;;;;;;10.05;6.80;;;18.10;99.90;;;;;;4939402;28;20063;-63
2023/05/15 11:00:26;;;;;;;11.27;7.45;;;18.10;99.90;;;;;;4924312;28;20074;-63
2023/05/15 11:02:55;;;;;;;10.30;7.80;;;18.10;99.90;;;;;;4942352;28;20066;-63
2023/05/15 11:05:21;;;;;;;8.05;7.22;;;18.10;99.90;;;;;;4959955;28;20085;-64
2023/05/15 11:08:16;;;;;;;7.22;5.93;;;18.00;99.90;;;;;;4974610;28;20051;-63
2023/05/15 11:10:42;;;;;;;10.73;7.05;;;17.90;99.90;;;;;;4972111;28;20058;-63
2023/05/15 11:13:08;;;;;;;9.55;6.80;;;17.80;99.90;;;;;;4945564;28;20042;-63
2023/05/15 11:15:47;;;;;;;8.98;6.90;;;17.80;99.90;;;;;;4956248;28;20089;-63
2023/05/15 11:18:13;;;;;;;10.32;8.60;;;17.70;99.90;;;;;;4958827;28;20531;-63
2023/05/15 11:20:45;;;;;;;8.60;6.82;;;17.70;99.90;;;;;;4972397;28;20042;-63
2023/05/15 11:23:11;;;;;;;10.27;7.35;;;17.80;99.90;;;;;;4974689;28;20072;-63
2023/05/15 11:25:36;;;;;;;9.70;7.50;;;18.00;99.90;;;;;;4973116;28;20057;-63
2023/05/15 11:28:03;;;;;;;10.88;7.65;;;18.40;99.90;;;;;;4957251;28;20085;-63
2023/05/15 11:30:40;;;;;;;10.45;7.40;;;18.70;99.90;;;;;;4943513;28;20039;-63
2023/05/15 11:33:15;;;;;;;13.65;7.85;;;18.80;99.90;;;;;;4941760;28;20073;-63
2023/05/15 11:35:45;;;;;;;9.73;7.30;;;19.00;99.90;;;;;;4955687;28;20129;-63
2023/05/15 11:38:24;;;;;;;8.13;7.30;;;19.10;99.90;;;;;;4947500;28;20054;-63
2023/05/15 11:41:02;;;;;;;13.40;8.63;;;19.00;99.90;;;;;;4936803;28;20053;-63
2023/05/15 11:43:29;;;;;;;10.98;7.70;;;19.00;99.90;;;;;;4971272;28;20528;-63
2023/05/15 11:45:57;;;;;;;10.45;7.50;;;18.80;99.90;;;;;;4969646;28;20062;-63
2023/05/15 11:48:27;;;;;;;9.23;7.63;;;18.80;99.90;;;;;;4958560;28;20050;-63
2023/05/15 11:50:52;;;;;;;11.38;7.90;;;18.90;99.80;;;;;;4948890;28;20050;-63
2023/05/15 11:53:19;;;;;;;11.60;8.52;;;19.00;99.90;;;;;;4959665;28;20445;-63
2023/05/15 11:55:45;;;;;;;9.57;7.90;;;19.10;99.90;;;;;;4944840;28;20053;-63
2023/05/15 11:58:16;;;;;;;13.18;9.38;;;19.00;99.30;;;;;;4975549;28;20042;-63
2023/05/15 12:00:43;;;;;;;11.32;9.15;;;19.00;99.00;;;;;;4958168;28;20062;-63
2023/05/15 12:03:21;;;;;;;8.50;7.65;;;18.90;98.90;;;;;;4956585;28;20066;-63
2023/05/15 12:05:46;;;;;;;10.90;8.65;;;18.80;98.90;;;;;;4956348;28;20055;-63
2023/05/15 12:08:12;;;;;;;13.05;8.75;;;18.80;98.70;;;;;;4961510;28;20043;-63
2023/05/15 12:10:42;;;;;;;10.32;9.20;;;18.90;98.90;;;;;;4957095;28;20055;-63
2023/05/15 12:13:12;;;;;;;11.25;8.18;;;19.00;99.10;;;;;;4946262;28;20111;-63
2023/05/15 12:15:43;;;;;;;13.82;8.70;;;19.10;99.30;;;;;;4948438;28;20109;-63
2023/05/15 12:18:09;;;;;;;9.18;7.68;;;19.10;99.00;;;;;;4953774;28;20142;-64
2023/05/15 12:20:37;;;;;;;8.57;7.68;;;19.00;98.50;;;;;;4950140;28;20051;-63
2023/05/15 12:23:04;;;;;;;8.30;7.03;;;19.00;98.60;;;;;;4954713;28;20109;-63
2023/05/15 12:25:32;;;;;;;10.23;6.78;;;19.00;98.50;;;;;;4961903;28;20099;-63
2023/05/15 12:28:00;;;;;;;10.32;8.27;;;19.10;98.00;;;;;;4963916;28;20846;-64
2023/05/15 12:30:26;;;;;;;10.32;8.50;;;19.20;97.80;;;;;;4963018;28;20051;-63
2023/05/15 12:32:52;;;;;;;12.75;9.18;;;19.40;97.80;;;;;;4951194;28;20070;-63
2023/05/15 12:35:18;;;;;;;10.02;9.02;;;19.50;98.00;;;;;;4963802;28;20122;-63